Green Ice — C6SO4 — position and weather

sailwx.info

Track history (hours):
 
Tides and Currents Weather Stations Pressure Air Temp Water Temp Dewpoint Dewpoint Depression Visibility Wind Speed Wind Dir Waves Ship Positions

Green Ice

Last reported at 2016-Jul-25 15:23 UTC. Time now 2016-Jul-27 05:46 UTC.
Position N 62°08' W 009°37'.

Length 86 m; draft 4.6 m.

Type: Cargo ship. MMSI: 311411000.

Date/timePositionNaut miles runAvg speedWind from/ knotsBaromVisibWave heightAir tempDewpointWater temp
2016-Jul-25 15:23N 62°08' W 009°37'1113.2
2016-Jul-25 14:34N 62°07' W 009°14'1313.0
2016-Jul-25 13:33N 62°05' W 008°47'1312.9
2016-Jul-25 12:34N 62°03' W 008°19'1313.3
2016-Jul-25 11:34N 62°01' W 007°51'1414.1
2016-Jul-25 10:33N 61°58' W 007°22'1313.2
2016-Jul-25 09:34N 61°56' W 006°54'7 6.8
2016-Jul-25 08:29N 62°00' W 006°42'0 0.0
2016-Jul-25 07:32N 62°00' W 006°42'0 0.0
2016-Jul-25 06:32N 61°60' W 006°42'0 0.0
2016-Jul-25 05:29N 61°60' W 006°42'0 0.1
2016-Jul-25 04:32N 61°60' W 006°42'0 0.0
2016-Jul-25 03:32N 61°60' W 006°42'0 0.1
2016-Jul-25 02:32N 61°60' W 006°42'0 0.0
2016-Jul-25 01:32N 61°60' W 006°42'0 0.1
2016-Jul-25 00:32N 61°60' W 006°42'0 0.1
2016-Jul-24 23:32N 62°00' W 006°42'0 0.0
2016-Jul-24 22:32N 62°00' W 006°42'0 0.0
2016-Jul-24 21:32N 62°00' W 006°42'0 0.0
2016-Jul-24 20:32N 62°00' W 006°42'0 0.0
2016-Jul-24 19:32N 62°00' W 006°42'0 0.0
2016-Jul-24 18:29N 62°00' W 006°42'0 0.0
2016-Jul-24 17:32N 61°60' W 006°42'0 0.0
2016-Jul-24 16:32N 61°60' W 006°42'0 0.1
2016-Jul-24 15:32N 61°60' W 006°42'0 0.0
2016-Jul-24 14:32N 61°60' W 006°42'0 0.1
2016-Jul-24 13:34N 61°60' W 006°42'7 7.1
2016-Jul-24 12:33N 61°54' W 006°33'8 8.0
2016-Jul-24 11:33N 61°52' W 006°17'8 8.0
2016-Jul-24 10:33N 61°50' W 006°00'9 9.2
2016-Jul-24 09:33N 61°46' W 005°42'1313.4
2016-Jul-24 08:33N 61°42' W 005°16'31813.1
2016-Jul-23 08:21N 59°03' E 004°01'1113.4
2016-Jul-23 07:31N 58°56' E 004°18'1313.3
2016-Jul-23 06:33N 58°48' E 004°38'2612.9
2016-Jul-23 04:34N 58°33' E 005°18'1313.2
2016-Jul-23 03:33N 58°25' E 005°37'1413.4
2016-Jul-23 02:33N 58°16' E 005°57'1413.8
2016-Jul-23 01:33N 58°07' E 006°17'1414.0
2016-Jul-23 00:33N 57°59' E 006°39'1414.1
2016-Jul-22 23:33N 57°52' E 007°02'3514.5
2016-Jul-22 21:08N 57°50' E 008°07'913.9
2016-Jul-22 20:28N 57°50' E 008°25'2912.9
2016-Jul-22 18:13N 57°50' E 009°19'812.5
2016-Jul-22 17:33N 57°49' E 009°35'1312.7
2016-Jul-22 16:33N 57°49' E 009°59'1313.3
2016-Jul-22 15:33N 57°48' E 010°24'1212.3
2016-Jul-22 14:33N 57°45' E 010°46'6 6.3
2016-Jul-22 13:32N 57°41' E 010°38'0 0.0
2016-Jul-22 12:29N 57°41' E 010°38'0 0.0
2016-Jul-22 11:26N 57°41' E 010°38'0 0.0
2016-Jul-22 10:23N 57°41' E 010°38'0 0.0
2016-Jul-22 09:32N 57°41' E 010°38'0 0.0
2016-Jul-22 08:32N 57°41' E 010°38'0 0.0
2016-Jul-22 07:32N 57°41' E 010°38'0 0.0
2016-Jul-22 04:32N 57°41' E 010°38'0 0.0
2016-Jul-22 03:23N 57°41' E 010°38'0 0.0
2016-Jul-22 02:08N 57°41' E 010°38'0 0.0
2016-Jul-22 00:20N 57°41' E 010°38'0 0.0
2016-Jul-21 22:07N 57°41' E 010°38'0 0.0
2016-Jul-21 21:25N 57°41' E 010°38'0 0.0
2016-Jul-21 20:13N 57°41' E 010°38'0 0.0
2016-Jul-21 19:31N 57°41' E 010°38'0 0.0
2016-Jul-21 18:13N 57°41' E 010°38'0 0.0
2016-Jul-21 17:25N 57°41' E 010°38'0 0.0
2016-Jul-21 16:31N 57°41' E 010°38'0 0.0
2016-Jul-21 15:22N 57°41' E 010°38'0 0.0
2016-Jul-21 14:31N 57°41' E 010°38'0 0.0
2016-Jul-21 13:31N 57°41' E 010°38'0 0.0
2016-Jul-21 12:31N 57°41' E 010°38'6 6.4
2016-Jul-21 11:34N 57°38' E 010°48'1413.9
2016-Jul-21 10:33N 57°32' E 011°11'1313.0
2016-Jul-21 09:33N 57°23' E 011°29'1413.6
2016-Jul-21 08:33N 57°11' E 011°38'1313.3
2016-Jul-21 07:33N 56°58' E 011°48'1313.5
2016-Jul-21 06:33N 56°46' E 011°58'1313.2
2016-Jul-21 05:33N 56°34' E 012°09'1414.2
2016-Jul-21 04:33N 56°21' E 012°20'1615.9
2016-Jul-21 03:34N 56°07' E 012°33'1515.2
2016-Jul-21 02:34N 55°54' E 012°44'1413.6
2016-Jul-21 01:34N 55°40' E 012°41'9 9.3
2016-Jul-21 00:33N 55°31' E 012°43'1312.9
2016-Jul-20 23:34N 55°18' E 012°42'1413.5
2016-Jul-20 22:33N 55°15' E 013°06'1413.9
2016-Jul-20 21:34N 55°14' E 013°30'1414.3
2016-Jul-20 20:33N 55°14' E 013°55'1313.3
2016-Jul-20 19:33N 55°15' E 014°18'1413.9
2016-Jul-20 18:33N 55°26' E 014°35'1413.5
2016-Jul-20 17:33N 55°27' E 014°58'1413.9
2016-Jul-20 16:33N 55°28' E 015°23'1513.5
2016-Jul-20 15:26N 55°29' E 015°49'3913.6
2016-Jul-20 12:33N 55°32' E 016°58'1313.5
2016-Jul-20 11:33N 55°33' E 017°22'1413.6
2016-Jul-20 10:33N 55°34' E 017°46'1413.7
2016-Jul-20 09:34N 55°35' E 018°10'1413.7
2016-Jul-20 08:33N 55°37' E 018°34'1413.6
2016-Jul-20 07:33N 55°38' E 018°58'1413.7
2016-Jul-20 06:34N 55°39' E 019°22'1413.7
2016-Jul-20 05:34N 55°41' E 019°47'1413.6
2016-Jul-20 04:33N 55°42' E 020°11'1413.7
2016-Jul-20 03:33N 55°43' E 020°35'1413.7
2016-Jul-20 02:33N 55°44' E 020°59'5 4.1
2016-Jul-20 01:26N 55°43' E 021°07'0 0.0
2016-Jul-19 23:28N 55°43' E 021°07'0 0.0
2016-Jul-19 22:34N 55°43' E 021°07'0 0.0
2016-Jul-19 21:30N 55°43' E 021°07'186 7.4
2016-Jul-18 20:30N 55°27' E 015°40'1313.9
2016-Jul-18 19:33N 55°25' E 015°17'1413.6
2016-Jul-18 18:33N 55°24' E 014°53'1312.9
2016-Jul-18 17:33N 55°19' E 014°32'1313.2
2016-Jul-18 16:33N 55°11' E 014°14'4314.0
2016-Jul-18 13:30N 55°15' E 012°60'1313.5
2016-Jul-18 12:33N 55°18' E 012°38'1313.0
2016-Jul-18 11:33N 55°31' E 012°42'1110.8
2016-Jul-18 10:33N 55°42' E 012°41'1313.1
2016-Jul-18 09:33N 55°55' E 012°38'1212.1
2016-Jul-18 08:33N 56°07' E 012°32'4013.2
2016-Jul-18 05:31N 56°41' E 011°54'1514.4
2016-Jul-18 04:27N 56°55' E 011°45'1314.5
2016-Jul-18 03:33N 57°08' E 011°36'1414.0
2016-Jul-18 02:33N 57°21' E 011°27'1413.7
2016-Jul-18 01:34N 57°32' E 011°14'1514.6
2016-Jul-18 00:33N 57°42' E 010°54'12313.7
2016-Jul-17 15:33N 57°55' E 007°04'1313.1
2016-Jul-17 14:33N 58°00' E 006°41'1312.8
2016-Jul-17 13:33N 58°08' E 006°21'1413.4
2016-Jul-17 12:29N 58°18' E 006°02'1212.7
2016-Jul-17 11:33N 58°26' E 005°46'1312.7
2016-Jul-17 10:33N 58°36' E 005°31'1312.6
2016-Jul-17 09:33N 58°48' E 005°22'1312.9
2016-Jul-17 08:33N 59°00' E 005°19'8 8.5
2016-Jul-17 07:33N 59°09' E 005°16'1 1.1
2016-Jul-17 06:33N 59°08' E 005°18'12 6.0
2016-Jul-17 04:33N 58°56' E 005°20'7 7.3
2016-Jul-17 03:33N 58°49' E 005°20'8 7.7
2016-Jul-17 02:33N 58°41' E 005°21'8 8.3
2016-Jul-17 01:33N 58°33' E 005°23'9 9.2
2016-Jul-17 00:33N 58°24' E 005°26'10 8.9
2016-Jul-16 23:25N 58°13' E 005°28'23411.2
2016-Jul-16 02:33N 54°19' E 005°09'1313.6
2016-Jul-16 01:33N 54°06' E 005°07'1413.5
2016-Jul-16 00:33N 53°53' E 005°00'1413.2
2016-Jul-15 23:30N 53°40' E 004°51'4912.2
2016-Jul-15 19:26N 52°55' E 004°17'1612.1
2016-Jul-15 18:08N 52°41' E 004°07'711.6
2016-Jul-15 17:33N 52°34' E 004°07'1212.0
2016-Jul-15 16:33N 52°29' E 004°25'7 6.7
2016-Jul-15 15:33N 52°28' E 004°36'  
Track history (hours):
 
Tides and Currents Weather Stations Pressure Air Temp Water Temp Dewpoint Dewpoint Depression Visibility Wind Speed Wind Dir Waves Ship Positions

Green Ice

Last reported at 2016-Jul-25 15:23 UTC. Time now 2016-Jul-27 05:47 UTC.
Position N 62°08' W 009°37'.

Length 86 m; draft 4.6 m.

Type: Cargo ship. MMSI: 311411000.

Date/timePositionNaut miles runAvg speedWind from/ knotsBaromVisibWave heightAir tempDewpointWater temp
2016-Jul-25 15:23N 62°08' W 009°37'1113.2
2016-Jul-25 14:34N 62°07' W 009°14'1313.0
2016-Jul-25 13:33N 62°05' W 008°47'1312.9
2016-Jul-25 12:34N 62°03' W 008°19'1313.3
2016-Jul-25 11:34N 62°01' W 007°51'1414.1
2016-Jul-25 10:33N 61°58' W 007°22'1313.2
2016-Jul-25 09:34N 61°56' W 006°54'7 6.8
2016-Jul-25 08:29N 62°00' W 006°42'0 0.0
2016-Jul-25 07:32N 62°00' W 006°42'0 0.0
2016-Jul-25 06:32N 61°60' W 006°42'0 0.0
2016-Jul-25 05:29N 61°60' W 006°42'0 0.1
2016-Jul-25 04:32N 61°60' W 006°42'0 0.0
2016-Jul-25 03:32N 61°60' W 006°42'0 0.1
2016-Jul-25 02:32N 61°60' W 006°42'0 0.0
2016-Jul-25 01:32N 61°60' W 006°42'0 0.1
2016-Jul-25 00:32N 61°60' W 006°42'0 0.1
2016-Jul-24 23:32N 62°00' W 006°42'0 0.0
2016-Jul-24 22:32N 62°00' W 006°42'0 0.0
2016-Jul-24 21:32N 62°00' W 006°42'0 0.0
2016-Jul-24 20:32N 62°00' W 006°42'0 0.0
2016-Jul-24 19:32N 62°00' W 006°42'0 0.0
2016-Jul-24 18:29N 62°00' W 006°42'0 0.0
2016-Jul-24 17:32N 61°60' W 006°42'0 0.0
2016-Jul-24 16:32N 61°60' W 006°42'0 0.1
2016-Jul-24 15:32N 61°60' W 006°42'0 0.0
2016-Jul-24 14:32N 61°60' W 006°42'0 0.1
2016-Jul-24 13:34N 61°60' W 006°42'7 7.1
2016-Jul-24 12:33N 61°54' W 006°33'8 8.0
2016-Jul-24 11:33N 61°52' W 006°17'8 8.0
2016-Jul-24 10:33N 61°50' W 006°00'9 9.2
2016-Jul-24 09:33N 61°46' W 005°42'1313.4
2016-Jul-24 08:33N 61°42' W 005°16'31813.1
2016-Jul-23 08:21N 59°03' E 004°01'1113.4
2016-Jul-23 07:31N 58°56' E 004°18'1313.3
2016-Jul-23 06:33N 58°48' E 004°38'2612.9
2016-Jul-23 04:34N 58°33' E 005°18'1313.2
2016-Jul-23 03:33N 58°25' E 005°37'1413.4
2016-Jul-23 02:33N 58°16' E 005°57'1413.8
2016-Jul-23 01:33N 58°07' E 006°17'1414.0
2016-Jul-23 00:33N 57°59' E 006°39'1414.1
2016-Jul-22 23:33N 57°52' E 007°02'3514.5
2016-Jul-22 21:08N 57°50' E 008°07'913.9
2016-Jul-22 20:28N 57°50' E 008°25'2912.9
2016-Jul-22 18:13N 57°50' E 009°19'812.5
2016-Jul-22 17:33N 57°49' E 009°35'1312.7
2016-Jul-22 16:33N 57°49' E 009°59'1313.3
2016-Jul-22 15:33N 57°48' E 010°24'1212.3
2016-Jul-22 14:33N 57°45' E 010°46'6 6.3
2016-Jul-22 13:32N 57°41' E 010°38'0 0.0
2016-Jul-22 12:29N 57°41' E 010°38'0 0.0
2016-Jul-22 11:26N 57°41' E 010°38'0 0.0
2016-Jul-22 10:23N 57°41' E 010°38'0 0.0
2016-Jul-22 09:32N 57°41' E 010°38'0 0.0
2016-Jul-22 08:32N 57°41' E 010°38'0 0.0
2016-Jul-22 07:32N 57°41' E 010°38'0 0.0
2016-Jul-22 04:32N 57°41' E 010°38'0 0.0
2016-Jul-22 03:23N 57°41' E 010°38'0 0.0
2016-Jul-22 02:08N 57°41' E 010°38'0 0.0
2016-Jul-22 00:20N 57°41' E 010°38'0 0.0
2016-Jul-21 22:07N 57°41' E 010°38'0 0.0
2016-Jul-21 21:25N 57°41' E 010°38'0 0.0
2016-Jul-21 20:13N 57°41' E 010°38'0 0.0
2016-Jul-21 19:31N 57°41' E 010°38'0 0.0
2016-Jul-21 18:13N 57°41' E 010°38'0 0.0
2016-Jul-21 17:25N 57°41' E 010°38'0 0.0
2016-Jul-21 16:31N 57°41' E 010°38'0 0.0
2016-Jul-21 15:22N 57°41' E 010°38'0 0.0
2016-Jul-21 14:31N 57°41' E 010°38'0 0.0
2016-Jul-21 13:31N 57°41' E 010°38'0 0.0
2016-Jul-21 12:31N 57°41' E 010°38'6 6.4
2016-Jul-21 11:34N 57°38' E 010°48'1413.9
2016-Jul-21 10:33N 57°32' E 011°11'1313.0
2016-Jul-21 09:33N 57°23' E 011°29'1413.6
2016-Jul-21 08:33N 57°11' E 011°38'1313.3
2016-Jul-21 07:33N 56°58' E 011°48'1313.5
2016-Jul-21 06:33N 56°46' E 011°58'1313.2
2016-Jul-21 05:33N 56°34' E 012°09'1414.2
2016-Jul-21 04:33N 56°21' E 012°20'1615.9
2016-Jul-21 03:34N 56°07' E 012°33'1515.2
2016-Jul-21 02:34N 55°54' E 012°44'1413.6
2016-Jul-21 01:34N 55°40' E 012°41'9 9.3
2016-Jul-21 00:33N 55°31' E 012°43'1312.9
2016-Jul-20 23:34N 55°18' E 012°42'1413.5
2016-Jul-20 22:33N 55°15' E 013°06'1413.9
2016-Jul-20 21:34N 55°14' E 013°30'1414.3
2016-Jul-20 20:33N 55°14' E 013°55'1313.3
2016-Jul-20 19:33N 55°15' E 014°18'1413.9
2016-Jul-20 18:33N 55°26' E 014°35'1413.5
2016-Jul-20 17:33N 55°27' E 014°58'1413.9
2016-Jul-20 16:33N 55°28' E 015°23'1513.5
2016-Jul-20 15:26N 55°29' E 015°49'3913.6
2016-Jul-20 12:33N 55°32' E 016°58'1313.5
2016-Jul-20 11:33N 55°33' E 017°22'1413.6
2016-Jul-20 10:33N 55°34' E 017°46'1413.7
2016-Jul-20 09:34N 55°35' E 018°10'1413.7
2016-Jul-20 08:33N 55°37' E 018°34'1413.6
2016-Jul-20 07:33N 55°38' E 018°58'1413.7
2016-Jul-20 06:34N 55°39' E 019°22'1413.7
2016-Jul-20 05:34N 55°41' E 019°47'1413.6
2016-Jul-20 04:33N 55°42' E 020°11'1413.7
2016-Jul-20 03:33N 55°43' E 020°35'1413.7
2016-Jul-20 02:33N 55°44' E 020°59'5 4.1
2016-Jul-20 01:26N 55°43' E 021°07'0 0.0
2016-Jul-19 23:28N 55°43' E 021°07'0 0.0
2016-Jul-19 22:34N 55°43' E 021°07'0 0.0
2016-Jul-19 21:30N 55°43' E 021°07'186 7.4
2016-Jul-18 20:30N 55°27' E 015°40'1313.9
2016-Jul-18 19:33N 55°25' E 015°17'1413.6
2016-Jul-18 18:33N 55°24' E 014°53'1312.9
2016-Jul-18 17:33N 55°19' E 014°32'1313.2
2016-Jul-18 16:33N 55°11' E 014°14'4314.0
2016-Jul-18 13:30N 55°15' E 012°60'1313.5
2016-Jul-18 12:33N 55°18' E 012°38'1313.0
2016-Jul-18 11:33N 55°31' E 012°42'1110.8
2016-Jul-18 10:33N 55°42' E 012°41'1313.1
2016-Jul-18 09:33N 55°55' E 012°38'1212.1
2016-Jul-18 08:33N 56°07' E 012°32'4013.2
2016-Jul-18 05:31N 56°41' E 011°54'1514.4
2016-Jul-18 04:27N 56°55' E 011°45'1314.5
2016-Jul-18 03:33N 57°08' E 011°36'1414.0
2016-Jul-18 02:33N 57°21' E 011°27'1413.7
2016-Jul-18 01:34N 57°32' E 011°14'1514.6
2016-Jul-18 00:33N 57°42' E 010°54'12313.7
2016-Jul-17 15:33N 57°55' E 007°04'1313.1
2016-Jul-17 14:33N 58°00' E 006°41'1312.8
2016-Jul-17 13:33N 58°08' E 006°21'1413.4
2016-Jul-17 12:29N 58°18' E 006°02'1212.7
2016-Jul-17 11:33N 58°26' E 005°46'1312.7
2016-Jul-17 10:33N 58°36' E 005°31'1312.6
2016-Jul-17 09:33N 58°48' E 005°22'1312.9
2016-Jul-17 08:33N 59°00' E 005°19'8 8.5
2016-Jul-17 07:33N 59°09' E 005°16'1 1.1
2016-Jul-17 06:33N 59°08' E 005°18'12 6.0
2016-Jul-17 04:33N 58°56' E 005°20'7 7.3
2016-Jul-17 03:33N 58°49' E 005°20'8 7.7
2016-Jul-17 02:33N 58°41' E 005°21'8 8.3
2016-Jul-17 01:33N 58°33' E 005°23'9 9.2
2016-Jul-17 00:33N 58°24' E 005°26'10 8.9
2016-Jul-16 23:25N 58°13' E 005°28'23411.2
2016-Jul-16 02:33N 54°19' E 005°09'1313.6
2016-Jul-16 01:33N 54°06' E 005°07'1413.5
2016-Jul-16 00:33N 53°53' E 005°00'1413.2
2016-Jul-15 23:30N 53°40' E 004°51'4912.2
2016-Jul-15 19:26N 52°55' E 004°17'1612.1
2016-Jul-15 18:08N 52°41' E 004°07'711.6
2016-Jul-15 17:33N 52°34' E 004°07'1212.0
2016-Jul-15 16:33N 52°29' E 004°25'7 6.7
2016-Jul-15 15:33N 52°28' E 004°36'  

Dump ship's entire track history